sensor_id;sensor_type;location;lat;lon;timestamp;P1;durP1;ratioP1;P2;durP2;ratioP2
53253;SDS011;39148;53.332;6.922;2022-11-18T00:01:24;4.47;;;2.88;;
53253;SDS011;39148;53.332;6.922;2022-11-18T00:03:50;4.70;;;2.90;;
53253;SDS011;39148;53.332;6.922;2022-11-18T00:06:18;5.10;;;2.85;;
53253;SDS011;39148;53.332;6.922;2022-11-18T00:08:45;5.22;;;3.28;;
53253;SDS011;39148;53.332;6.922;2022-11-18T00:11:13;5.10;;;3.30;;
53253;SDS011;39148;53.332;6.922;2022-11-18T00:14:00;5.28;;;2.88;;
53253;SDS011;39148;53.332;6.922;2022-11-18T00:16:45;4.95;;;3.13;;
53253;SDS011;39148;53.332;6.922;2022-11-18T00:19:29;5.13;;;3.10;;
53253;SDS011;39148;53.332;6.922;2022-11-18T00:21:59;6.03;;;3.15;;
53253;SDS011;39148;53.332;6.922;2022-11-18T00:24:25;4.93;;;2.90;;
53253;SDS011;39148;53.332;6.922;2022-11-18T00:26:52;4.40;;;2.60;;
53253;SDS011;39148;53.332;6.922;2022-11-18T00:29:19;4.78;;;3.20;;
53253;SDS011;39148;53.332;6.922;2022-11-18T00:31:45;4.75;;;3.10;;
53253;SDS011;39148;53.332;6.922;2022-11-18T00:34:12;4.50;;;2.88;;
53253;SDS011;39148;53.332;6.922;2022-11-18T00:36:39;5.53;;;3.30;;
53253;SDS011;39148;53.332;6.922;2022-11-18T00:39:06;4.65;;;3.03;;
53253;SDS011;39148;53.332;6.922;2022-11-18T00:41:32;5.50;;;3.03;;
53253;SDS011;39148;53.332;6.922;2022-11-18T00:44:17;4.40;;;2.75;;
53253;SDS011;39148;53.332;6.922;2022-11-18T00:46:42;6.00;;;3.10;;
53253;SDS011;39148;53.332;6.922;2022-11-18T00:49:08;4.07;;;2.40;;
53253;SDS011;39148;53.332;6.922;2022-11-18T00:51:34;4.78;;;2.63;;
53253;SDS011;39148;53.332;6.922;2022-11-18T00:54:00;4.47;;;2.50;;
53253;SDS011;39148;53.332;6.922;2022-11-18T00:56:26;4.35;;;2.90;;
53253;SDS011;39148;53.332;6.922;2022-11-18T00:58:52;4.85;;;2.65;;
53253;SDS011;39148;53.332;6.922;2022-11-18T01:01:18;5.22;;;2.92;;
53253;SDS011;39148;53.332;6.922;2022-11-18T01:03:45;4.80;;;2.58;;
53253;SDS011;39148;53.332;6.922;2022-11-18T01:06:11;5.22;;;2.78;;
53253;SDS011;39148;53.332;6.922;2022-11-18T01:08:36;4.63;;;2.63;;
53253;SDS011;39148;53.332;6.922;2022-11-18T01:11:02;4.68;;;2.92;;
53253;SDS011;39148;53.332;6.922;2022-11-18T01:13:48;4.35;;;2.63;;
53253;SDS011;39148;53.332;6.922;2022-11-18T01:16:18;5.13;;;3.22;;
53253;SDS011;39148;53.332;6.922;2022-11-18T01:18:48;4.55;;;2.60;;
53253;SDS011;39148;53.332;6.922;2022-11-18T01:21:13;4.47;;;2.88;;
53253;SDS011;39148;53.332;6.922;2022-11-18T01:23:39;4.60;;;2.88;;
53253;SDS011;39148;53.332;6.922;2022-11-18T01:26:06;5.35;;;3.47;;
53253;SDS011;39148;53.332;6.922;2022-11-18T01:28:34;5.13;;;2.95;;
53253;SDS011;39148;53.332;6.922;2022-11-18T01:31:04;4.93;;;2.78;;
53253;SDS011;39148;53.332;6.922;2022-11-18T01:33:31;5.47;;;3.28;;
53253;SDS011;39148;53.332;6.922;2022-11-18T01:35:57;4.82;;;2.88;;
53253;SDS011;39148;53.332;6.922;2022-11-18T01:38:23;5.85;;;3.35;;
53253;SDS011;39148;53.332;6.922;2022-11-18T01:40:49;6.78;;;3.10;;
53253;SDS011;39148;53.332;6.922;2022-11-18T01:43:16;4.85;;;2.80;;
53253;SDS011;39148;53.332;6.922;2022-11-18T01:45:44;5.78;;;3.08;;
53253;SDS011;39148;53.332;6.922;2022-11-18T01:48:12;5.47;;;3.10;;
53253;SDS011;39148;53.332;6.922;2022-11-18T01:50:56;5.07;;;2.72;;
53253;SDS011;39148;53.332;6.922;2022-11-18T01:53:27;4.85;;;2.67;;
53253;SDS011;39148;53.332;6.922;2022-11-18T01:55:59;4.60;;;2.80;;
53253;SDS011;39148;53.332;6.922;2022-11-18T01:58:33;4.63;;;2.83;;
53253;SDS011;39148;53.332;6.922;2022-11-18T02:01:04;5.47;;;3.05;;
53253;SDS011;39148;53.332;6.922;2022-11-18T02:03:32;4.97;;;3.00;;
53253;SDS011;39148;53.332;6.922;2022-11-18T02:05:58;5.75;;;3.08;;
53253;SDS011;39148;53.332;6.922;2022-11-18T02:08:25;4.93;;;2.70;;
53253;SDS011;39148;53.332;6.922;2022-11-18T02:10:53;4.90;;;2.90;;
53253;SDS011;39148;53.332;6.922;2022-11-18T02:13:19;5.07;;;2.80;;
53253;SDS011;39148;53.332;6.922;2022-11-18T02:15:48;5.22;;;3.20;;
53253;SDS011;39148;53.332;6.922;2022-11-18T02:18:27;5.55;;;3.03;;
53253;SDS011;39148;53.332;6.922;2022-11-18T02:21:18;5.57;;;3.15;;
53253;SDS011;39148;53.332;6.922;2022-11-18T02:29:34;5.82;;;3.55;;
53253;SDS011;39148;53.332;6.922;2022-11-18T02:32:21;5.13;;;2.97;;
53253;SDS011;39148;53.332;6.922;2022-11-18T02:40:13;6.45;;;3.30;;
53253;SDS011;39148;53.332;6.922;2022-11-18T02:42:43;7.32;;;3.22;;
53253;SDS011;39148;53.332;6.922;2022-11-18T02:45:16;5.85;;;3.03;;
53253;SDS011;39148;53.332;6.922;2022-11-18T02:47:45;4.88;;;3.00;;
53253;SDS011;39148;53.332;6.922;2022-11-18T02:50:14;6.13;;;3.08;;
53253;SDS011;39148;53.332;6.922;2022-11-18T02:52:43;6.50;;;3.53;;
53253;SDS011;39148;53.332;6.922;2022-11-18T02:55:11;5.38;;;3.10;;
53253;SDS011;39148;53.332;6.922;2022-11-18T02:57:38;6.18;;;3.47;;
53253;SDS011;39148;53.332;6.922;2022-11-18T03:00:07;6.53;;;3.53;;
53253;SDS011;39148;53.332;6.922;2022-11-18T03:02:40;5.38;;;3.38;;
53253;SDS011;39148;53.332;6.922;2022-11-18T03:05:08;5.97;;;3.30;;
53253;SDS011;39148;53.332;6.922;2022-11-18T03:07:41;5.68;;;3.25;;
53253;SDS011;39148;53.332;6.922;2022-11-18T03:10:12;6.32;;;3.58;;
53253;SDS011;39148;53.332;6.922;2022-11-18T03:12:45;6.00;;;3.50;;
53253;SDS011;39148;53.332;6.922;2022-11-18T03:15:25;5.40;;;3.30;;
53253;SDS011;39148;53.332;6.922;2022-11-18T03:20:55;6.45;;;3.60;;
53253;SDS011;39148;53.332;6.922;2022-11-18T03:26:06;5.85;;;3.15;;
53253;SDS011;39148;53.332;6.922;2022-11-18T03:31:29;5.63;;;3.30;;
53253;SDS011;39148;53.332;6.922;2022-11-18T03:34:04;4.68;;;2.78;;
53253;SDS011;39148;53.332;6.922;2022-11-18T03:36:32;6.25;;;3.63;;
53253;SDS011;39148;53.332;6.922;2022-11-18T03:39:04;5.93;;;3.25;;
53253;SDS011;39148;53.332;6.922;2022-11-18T03:41:33;7.35;;;3.55;;
53253;SDS011;39148;53.332;6.922;2022-11-18T03:44:04;6.25;;;3.22;;
53253;SDS011;39148;53.332;6.922;2022-11-18T03:46:38;6.03;;;3.15;;
53253;SDS011;39148;53.332;6.922;2022-11-18T03:49:14;6.32;;;3.08;;
53253;SDS011;39148;53.332;6.922;2022-11-18T03:51:46;5.05;;;3.15;;
53253;SDS011;39148;53.332;6.922;2022-11-18T03:56:46;5.30;;;3.17;;
53253;SDS011;39148;53.332;6.922;2022-11-18T03:59:34;5.63;;;2.92;;
53253;SDS011;39148;53.332;6.922;2022-11-18T04:04:28;4.53;;;2.72;;
53253;SDS011;39148;53.332;6.922;2022-11-18T04:07:18;5.32;;;3.08;;
53253;SDS011;39148;53.332;6.922;2022-11-18T04:09:42;5.28;;;3.20;;
53253;SDS011;39148;53.332;6.922;2022-11-18T04:12:22;5.05;;;3.00;;
53253;SDS011;39148;53.332;6.922;2022-11-18T04:14:52;5.13;;;2.83;;
53253;SDS011;39148;53.332;6.922;2022-11-18T04:17:20;6.80;;;3.30;;
53253;SDS011;39148;53.332;6.922;2022-11-18T04:19:48;6.22;;;3.30;;
53253;SDS011;39148;53.332;6.922;2022-11-18T04:22:15;4.95;;;2.72;;
53253;SDS011;39148;53.332;6.922;2022-11-18T04:24:42;5.80;;;2.92;;
53253;SDS011;39148;53.332;6.922;2022-11-18T04:27:08;5.75;;;2.95;;
53253;SDS011;39148;53.332;6.922;2022-11-18T04:29:33;6.45;;;3.10;;
53253;SDS011;39148;53.332;6.922;2022-11-18T04:31:59;5.68;;;3.05;;
53253;SDS011;39148;53.332;6.922;2022-11-18T04:34:26;6.28;;;3.50;;
53253;SDS011;39148;53.332;6.922;2022-11-18T04:36:52;6.60;;;3.30;;
53253;SDS011;39148;53.332;6.922;2022-11-18T04:39:18;5.47;;;3.10;;
53253;SDS011;39148;53.332;6.922;2022-11-18T04:41:44;7.90;;;3.45;;
53253;SDS011;39148;53.332;6.922;2022-11-18T04:44:25;4.95;;;3.03;;
53253;SDS011;39148;53.332;6.922;2022-11-18T04:46:53;6.28;;;3.42;;
53253;SDS011;39148;53.332;6.922;2022-11-18T04:49:19;5.95;;;3.22;;
53253;SDS011;39148;53.332;6.922;2022-11-18T04:51:46;7.15;;;3.40;;
53253;SDS011;39148;53.332;6.922;2022-11-18T04:54:12;5.70;;;3.20;;
53253;SDS011;39148;53.332;6.922;2022-11-18T04:56:39;5.90;;;3.40;;
53253;SDS011;39148;53.332;6.922;2022-11-18T04:59:05;6.18;;;3.33;;
53253;SDS011;39148;53.332;6.922;2022-11-18T05:01:31;5.57;;;2.95;;
53253;SDS011;39148;53.332;6.922;2022-11-18T05:04:01;6.57;;;3.40;;
53253;SDS011;39148;53.332;6.922;2022-11-18T05:06:28;6.72;;;3.45;;
53253;SDS011;39148;53.332;6.922;2022-11-18T05:08:58;6.30;;;3.13;;
53253;SDS011;39148;53.332;6.922;2022-11-18T05:11:25;7.47;;;3.17;;
53253;SDS011;39148;53.332;6.922;2022-11-18T05:14:09;5.38;;;2.90;;
53253;SDS011;39148;53.332;6.922;2022-11-18T05:16:36;6.32;;;3.28;;
53253;SDS011;39148;53.332;6.922;2022-11-18T05:19:02;5.00;;;2.88;;
53253;SDS011;39148;53.332;6.922;2022-11-18T05:21:29;6.30;;;3.25;;
53253;SDS011;39148;53.332;6.922;2022-11-18T05:23:55;6.38;;;3.72;;
53253;SDS011;39148;53.332;6.922;2022-11-18T05:26:22;6.50;;;3.35;;
53253;SDS011;39148;53.332;6.922;2022-11-18T05:28:48;5.68;;;3.13;;
53253;SDS011;39148;53.332;6.922;2022-11-18T05:31:14;6.18;;;3.17;;
53253;SDS011;39148;53.332;6.922;2022-11-18T05:33:40;5.35;;;3.13;;
53253;SDS011;39148;53.332;6.922;2022-11-18T05:36:11;5.88;;;2.92;;
53253;SDS011;39148;53.332;6.922;2022-11-18T05:38:38;6.18;;;3.00;;
53253;SDS011;39148;53.332;6.922;2022-11-18T05:41:05;6.07;;;3.25;;
53253;SDS011;39148;53.332;6.922;2022-11-18T05:43:31;7.18;;;3.50;;
53253;SDS011;39148;53.332;6.922;2022-11-18T05:45:58;6.20;;;3.47;;
53253;SDS011;39148;53.332;6.922;2022-11-18T05:48:24;6.38;;;3.30;;
53253;SDS011;39148;53.332;6.922;2022-11-18T05:50:51;6.05;;;3.17;;
53253;SDS011;39148;53.332;6.922;2022-11-18T05:53:18;6.88;;;3.47;;
53253;SDS011;39148;53.332;6.922;2022-11-18T05:58:17;6.45;;;3.15;;
53253;SDS011;39148;53.332;6.922;2022-11-18T06:00:43;6.55;;;3.10;;
53253;SDS011;39148;53.332;6.922;2022-11-18T06:03:12;6.38;;;3.28;;
53253;SDS011;39148;53.332;6.922;2022-11-18T06:05:44;5.82;;;3.20;;
53253;SDS011;39148;53.332;6.922;2022-11-18T06:08:10;5.60;;;3.05;;
53253;SDS011;39148;53.332;6.922;2022-11-18T06:10:36;5.82;;;3.13;;
53253;SDS011;39148;53.332;6.922;2022-11-18T06:13:05;5.50;;;3.13;;
53253;SDS011;39148;53.332;6.922;2022-11-18T06:15:37;6.30;;;3.40;;
53253;SDS011;39148;53.332;6.922;2022-11-18T06:18:20;6.47;;;3.42;;
53253;SDS011;39148;53.332;6.922;2022-11-18T06:20:48;6.15;;;3.17;;
53253;SDS011;39148;53.332;6.922;2022-11-18T06:23:15;7.43;;;3.50;;
53253;SDS011;39148;53.332;6.922;2022-11-18T06:25:41;6.15;;;3.15;;
53253;SDS011;39148;53.332;6.922;2022-11-18T06:28:07;6.47;;;3.40;;
53253;SDS011;39148;53.332;6.922;2022-11-18T06:30:35;6.10;;;3.17;;
53253;SDS011;39148;53.332;6.922;2022-11-18T06:33:01;5.75;;;2.90;;
53253;SDS011;39148;53.332;6.922;2022-11-18T06:35:27;6.50;;;3.30;;
53253;SDS011;39148;53.332;6.922;2022-11-18T06:37:53;7.38;;;3.47;;
53253;SDS011;39148;53.332;6.922;2022-11-18T06:40:18;7.97;;;3.00;;
53253;SDS011;39148;53.332;6.922;2022-11-18T06:42:44;6.57;;;3.45;;
53253;SDS011;39148;53.332;6.922;2022-11-18T06:45:28;6.97;;;3.47;;
53253;SDS011;39148;53.332;6.922;2022-11-18T06:47:57;7.22;;;3.75;;
53253;SDS011;39148;53.332;6.922;2022-11-18T06:50:25;6.22;;;3.22;;
53253;SDS011;39148;53.332;6.922;2022-11-18T06:52:51;7.93;;;3.25;;
53253;SDS011;39148;53.332;6.922;2022-11-18T06:55:17;6.45;;;3.40;;
53253;SDS011;39148;53.332;6.922;2022-11-18T06:57:43;5.85;;;3.00;;
53253;SDS011;39148;53.332;6.922;2022-11-18T07:00:08;6.47;;;2.90;;
53253;SDS011;39148;53.332;6.922;2022-11-18T07:02:35;5.72;;;2.97;;
53253;SDS011;39148;53.332;6.922;2022-11-18T07:05:01;7.15;;;3.30;;
53253;SDS011;39148;53.332;6.922;2022-11-18T07:07:27;5.90;;;3.20;;
53253;SDS011;39148;53.332;6.922;2022-11-18T07:09:53;6.05;;;3.10;;
53253;SDS011;39148;53.332;6.922;2022-11-18T07:12:18;6.72;;;3.22;;
53253;SDS011;39148;53.332;6.922;2022-11-18T07:14:44;5.63;;;3.20;;
53253;SDS011;39148;53.332;6.922;2022-11-18T07:17:10;8.65;;;3.40;;
53253;SDS011;39148;53.332;6.922;2022-11-18T07:19:37;6.97;;;3.58;;
53253;SDS011;39148;53.332;6.922;2022-11-18T07:22:03;7.93;;;3.47;;
53253;SDS011;39148;53.332;6.922;2022-11-18T07:24:32;7.20;;;3.50;;
53253;SDS011;39148;53.332;6.922;2022-11-18T07:26:57;7.20;;;3.40;;
53253;SDS011;39148;53.332;6.922;2022-11-18T07:29:24;7.82;;;3.55;;
53253;SDS011;39148;53.332;6.922;2022-11-18T07:31:49;6.47;;;3.50;;
53253;SDS011;39148;53.332;6.922;2022-11-18T07:34:15;6.18;;;3.22;;
53253;SDS011;39148;53.332;6.922;2022-11-18T07:36:41;7.20;;;3.78;;
53253;SDS011;39148;53.332;6.922;2022-11-18T07:39:07;6.63;;;3.63;;
53253;SDS011;39148;53.332;6.922;2022-11-18T07:41:34;6.45;;;3.17;;
53253;SDS011;39148;53.332;6.922;2022-11-18T07:44:00;7.18;;;3.70;;
53253;SDS011;39148;53.332;6.922;2022-11-18T07:46:31;7.88;;;3.58;;
53253;SDS011;39148;53.332;6.922;2022-11-18T07:48:59;7.40;;;3.80;;
53253;SDS011;39148;53.332;6.922;2022-11-18T07:51:27;7.45;;;3.85;;
53253;SDS011;39148;53.332;6.922;2022-11-18T07:53:54;6.75;;;3.58;;
53253;SDS011;39148;53.332;6.922;2022-11-18T07:56:20;7.20;;;4.07;;
53253;SDS011;39148;53.332;6.922;2022-11-18T07:58:46;7.13;;;4.00;;
53253;SDS011;39148;53.332;6.922;2022-11-18T08:01:16;6.88;;;3.40;;
53253;SDS011;39148;53.332;6.922;2022-11-18T08:03:43;8.15;;;4.18;;
53253;SDS011;39148;53.332;6.922;2022-11-18T08:06:10;6.90;;;3.80;;
53253;SDS011;39148;53.332;6.922;2022-11-18T08:08:37;6.57;;;4.25;;
53253;SDS011;39148;53.332;6.922;2022-11-18T08:11:04;7.50;;;3.83;;
53253;SDS011;39148;53.332;6.922;2022-11-18T08:13:32;6.63;;;3.58;;
53253;SDS011;39148;53.332;6.922;2022-11-18T08:15:58;6.57;;;3.90;;
53253;SDS011;39148;53.332;6.922;2022-11-18T08:18:26;6.38;;;3.55;;
53253;SDS011;39148;53.332;6.922;2022-11-18T08:20:53;7.82;;;3.90;;
53253;SDS011;39148;53.332;6.922;2022-11-18T08:23:19;9.25;;;4.50;;
53253;SDS011;39148;53.332;6.922;2022-11-18T08:25:45;7.30;;;4.22;;
53253;SDS011;39148;53.332;6.922;2022-11-18T08:28:12;7.80;;;3.95;;
53253;SDS011;39148;53.332;6.922;2022-11-18T08:30:38;8.20;;;4.30;;
53253;SDS011;39148;53.332;6.922;2022-11-18T08:33:04;7.13;;;3.80;;
53253;SDS011;39148;53.332;6.922;2022-11-18T08:35:30;8.60;;;4.30;;
53253;SDS011;39148;53.332;6.922;2022-11-18T08:37:57;7.75;;;4.35;;
53253;SDS011;39148;53.332;6.922;2022-11-18T08:40:23;8.02;;;4.57;;
53253;SDS011;39148;53.332;6.922;2022-11-18T08:42:49;7.47;;;4.38;;
53253;SDS011;39148;53.332;6.922;2022-11-18T08:45:16;6.78;;;4.70;;
53253;SDS011;39148;53.332;6.922;2022-11-18T08:47:41;7.68;;;4.47;;
53253;SDS011;39148;53.332;6.922;2022-11-18T08:50:08;8.75;;;4.65;;
53253;SDS011;39148;53.332;6.922;2022-11-18T08:52:35;8.65;;;4.43;;
53253;SDS011;39148;53.332;6.922;2022-11-18T08:55:02;8.45;;;4.55;;
53253;SDS011;39148;53.332;6.922;2022-11-18T08:57:28;7.32;;;4.68;;
53253;SDS011;39148;53.332;6.922;2022-11-18T08:59:55;8.43;;;5.25;;
53253;SDS011;39148;53.332;6.922;2022-11-18T09:02:21;8.05;;;4.85;;
53253;SDS011;39148;53.332;6.922;2022-11-18T09:04:48;7.72;;;4.75;;
53253;SDS011;39148;53.332;6.922;2022-11-18T09:07:17;7.97;;;4.70;;
53253;SDS011;39148;53.332;6.922;2022-11-18T09:09:43;10.65;;;5.15;;
53253;SDS011;39148;53.332;6.922;2022-11-18T09:12:09;8.48;;;5.45;;
53253;SDS011;39148;53.332;6.922;2022-11-18T09:14:40;8.77;;;5.15;;
53253;SDS011;39148;53.332;6.922;2022-11-18T09:17:07;8.07;;;4.97;;
53253;SDS011;39148;53.332;6.922;2022-11-18T09:19:33;8.15;;;5.03;;
53253;SDS011;39148;53.332;6.922;2022-11-18T09:21:59;7.65;;;4.65;;
53253;SDS011;39148;53.332;6.922;2022-11-18T09:24:25;8.18;;;5.10;;
53253;SDS011;39148;53.332;6.922;2022-11-18T09:26:51;10.07;;;5.03;;
53253;SDS011;39148;53.332;6.922;2022-11-18T09:29:18;9.07;;;5.38;;
53253;SDS011;39148;53.332;6.922;2022-11-18T09:31:46;8.55;;;5.20;;
53253;SDS011;39148;53.332;6.922;2022-11-18T09:34:12;8.65;;;5.50;;
53253;SDS011;39148;53.332;6.922;2022-11-18T09:36:38;8.77;;;5.43;;
53253;SDS011;39148;53.332;6.922;2022-11-18T09:39:04;9.23;;;5.85;;
53253;SDS011;39148;53.332;6.922;2022-11-18T09:49:38;10.32;;;5.78;;
53253;SDS011;39148;53.332;6.922;2022-11-18T09:55:02;10.55;;;5.60;;
53253;SDS011;39148;53.332;6.922;2022-11-18T09:57:38;12.00;;;6.03;;
53253;SDS011;39148;53.332;6.922;2022-11-18T10:00:17;9.57;;;6.07;;
53253;SDS011;39148;53.332;6.922;2022-11-18T10:02:54;9.75;;;6.05;;
53253;SDS011;39148;53.332;6.922;2022-11-18T10:05:25;9.80;;;5.78;;
53253;SDS011;39148;53.332;6.922;2022-11-18T10:14:09;10.32;;;5.97;;
53253;SDS011;39148;53.332;6.922;2022-11-18T10:22:25;9.30;;;6.25;;
53253;SDS011;39148;53.332;6.922;2022-11-18T10:25:06;11.55;;;6.07;;
53253;SDS011;39148;53.332;6.922;2022-11-18T10:27:39;11.38;;;6.00;;
53253;SDS011;39148;53.332;6.922;2022-11-18T10:30:13;10.55;;;6.25;;
53253;SDS011;39148;53.332;6.922;2022-11-18T10:33:42;9.75;;;6.07;;
53253;SDS011;39148;53.332;6.922;2022-11-18T10:35:37;10.32;;;6.18;;
53253;SDS011;39148;53.332;6.922;2022-11-18T10:38:25;10.35;;;6.25;;
53253;SDS011;39148;53.332;6.922;2022-11-18T10:41:03;11.57;;;6.65;;
53253;SDS011;39148;53.332;6.922;2022-11-18T10:46:27;11.32;;;6.78;;
53253;SDS011;39148;53.332;6.922;2022-11-18T10:54:14;9.98;;;6.65;;
53253;SDS011;39148;53.332;6.922;2022-11-18T10:56:45;9.98;;;6.57;;
53253;SDS011;39148;53.332;6.922;2022-11-18T10:59:24;10.45;;;7.18;;
53253;SDS011;39148;53.332;6.922;2022-11-18T11:04:38;9.40;;;7.00;;
53253;SDS011;39148;53.332;6.922;2022-11-18T11:09:40;10.40;;;6.93;;
53253;SDS011;39148;53.332;6.922;2022-11-18T11:12:13;11.27;;;7.22;;
53253;SDS011;39148;53.332;6.922;2022-11-18T11:14:50;11.43;;;7.80;;
53253;SDS011;39148;53.332;6.922;2022-11-18T11:20:12;10.93;;;7.43;;
53253;SDS011;39148;53.332;6.922;2022-11-18T11:22:44;11.52;;;7.68;;
53253;SDS011;39148;53.332;6.922;2022-11-18T11:28:01;12.63;;;7.97;;
53253;SDS011;39148;53.332;6.922;2022-11-18T11:30:35;12.70;;;7.88;;
53253;SDS011;39148;53.332;6.922;2022-11-18T11:33:18;13.25;;;8.40;;
53253;SDS011;39148;53.332;6.922;2022-11-18T11:41:22;14.32;;;9.02;;
53253;SDS011;39148;53.332;6.922;2022-11-18T11:50:42;14.15;;;8.95;;
53253;SDS011;39148;53.332;6.922;2022-11-18T12:00:59;15.73;;;10.68;;
53253;SDS011;39148;53.332;6.922;2022-11-18T12:06:09;18.25;;;11.98;;
53253;SDS011;39148;53.332;6.922;2022-11-18T12:08:35;17.48;;;12.63;;
53253;SDS011;39148;53.332;6.922;2022-11-18T12:26:47;22.42;;;14.57;;
53253;SDS011;39148;53.332;6.922;2022-11-18T12:31:43;24.08;;;16.67;;
53253;SDS011;39148;53.332;6.922;2022-11-18T12:34:19;24.05;;;16.20;;
53253;SDS011;39148;53.332;6.922;2022-11-18T12:36:54;22.83;;;15.88;;
53253;SDS011;39148;53.332;6.922;2022-11-18T12:44:43;25.00;;;16.70;;
53253;SDS011;39148;53.332;6.922;2022-11-18T12:47:11;24.75;;;16.23;;
53253;SDS011;39148;53.332;6.922;2022-11-18T12:54:54;24.13;;;17.35;;
53253;SDS011;39148;53.332;6.922;2022-11-18T12:57:23;27.10;;;17.83;;
53253;SDS011;39148;53.332;6.922;2022-11-18T12:59:51;25.88;;;18.02;;
53253;SDS011;39148;53.332;6.922;2022-11-18T13:02:20;29.45;;;18.77;;
53253;SDS011;39148;53.332;6.922;2022-11-18T13:07:31;29.08;;;18.35;;
53253;SDS011;39148;53.332;6.922;2022-11-18T13:10:21;29.08;;;19.10;;
53253;SDS011;39148;53.332;6.922;2022-11-18T13:12:50;26.00;;;18.52;;
53253;SDS011;39148;53.332;6.922;2022-11-18T13:15:16;24.65;;;18.17;;
53253;SDS011;39148;53.332;6.922;2022-11-18T13:18:10;27.83;;;19.00;;
53253;SDS011;39148;53.332;6.922;2022-11-18T13:20:38;26.75;;;19.10;;
53253;SDS011;39148;53.332;6.922;2022-11-18T13:25:52;28.00;;;19.60;;
53253;SDS011;39148;53.332;6.922;2022-11-18T13:32:08;25.90;;;18.35;;
53253;SDS011;39148;53.332;6.922;2022-11-18T13:34:20;27.75;;;19.23;;
53253;SDS011;39148;53.332;6.922;2022-11-18T13:36:48;26.10;;;18.88;;
53253;SDS011;39148;53.332;6.922;2022-11-18T13:39:25;25.85;;;18.52;;
53253;SDS011;39148;53.332;6.922;2022-11-18T13:41:59;26.90;;;18.85;;
53253;SDS011;39148;53.332;6.922;2022-11-18T13:44:30;26.80;;;18.73;;
53253;SDS011;39148;53.332;6.922;2022-11-18T13:50:11;25.10;;;17.90;;
53253;SDS011;39148;53.332;6.922;2022-11-18T13:52:31;27.33;;;18.15;;
53253;SDS011;39148;53.332;6.922;2022-11-18T13:58:03;28.15;;;18.70;;
53253;SDS011;39148;53.332;6.922;2022-11-18T14:00:34;25.13;;;18.42;;
53253;SDS011;39148;53.332;6.922;2022-11-18T14:03:05;24.95;;;18.70;;
53253;SDS011;39148;53.332;6.922;2022-11-18T14:05:54;29.85;;;18.75;;
53253;SDS011;39148;53.332;6.922;2022-11-18T14:08:31;23.40;;;17.65;;
53253;SDS011;39148;53.332;6.922;2022-11-18T14:10:58;27.48;;;18.90;;
53253;SDS011;39148;53.332;6.922;2022-11-18T14:13:29;27.15;;;19.27;;
53253;SDS011;39148;53.332;6.922;2022-11-18T14:15:57;22.45;;;16.52;;
53253;SDS011;39148;53.332;6.922;2022-11-18T14:18:31;24.80;;;16.83;;
53253;SDS011;39148;53.332;6.922;2022-11-18T14:20:58;23.90;;;17.80;;
53253;SDS011;39148;53.332;6.922;2022-11-18T14:23:27;22.02;;;16.40;;
53253;SDS011;39148;53.332;6.922;2022-11-18T14:25:58;21.88;;;16.92;;
53253;SDS011;39148;53.332;6.922;2022-11-18T14:28:28;24.10;;;16.92;;
53253;SDS011;39148;53.332;6.922;2022-11-18T14:36:30;23.35;;;15.77;;
53253;SDS011;39148;53.332;6.922;2022-11-18T14:38:56;24.23;;;16.38;;
53253;SDS011;39148;53.332;6.922;2022-11-18T14:41:22;22.60;;;16.95;;
53253;SDS011;39148;53.332;6.922;2022-11-18T14:44:06;21.85;;;16.17;;
53253;SDS011;39148;53.332;6.922;2022-11-18T14:46:32;22.48;;;16.38;;
53253;SDS011;39148;53.332;6.922;2022-11-18T14:49:01;21.67;;;15.70;;
53253;SDS011;39148;53.332;6.922;2022-11-18T14:51:28;19.67;;;15.45;;
53253;SDS011;39148;53.332;6.922;2022-11-18T14:53:54;22.02;;;15.75;;
53253;SDS011;39148;53.332;6.922;2022-11-18T14:56:25;23.52;;;15.88;;
53253;SDS011;39148;53.332;6.922;2022-11-18T14:58:53;19.75;;;13.85;;
53253;SDS011;39148;53.332;6.922;2022-11-18T15:01:19;20.70;;;14.85;;
53253;SDS011;39148;53.332;6.922;2022-11-18T15:03:45;21.80;;;14.88;;
53253;SDS011;39148;53.332;6.922;2022-11-18T15:06:20;19.45;;;13.82;;
53253;SDS011;39148;53.332;6.922;2022-11-18T15:08:48;18.20;;;13.73;;
53253;SDS011;39148;53.332;6.922;2022-11-18T15:11:15;19.13;;;14.00;;
53253;SDS011;39148;53.332;6.922;2022-11-18T15:13:43;17.15;;;13.50;;
53253;SDS011;39148;53.332;6.922;2022-11-18T15:16:22;18.60;;;14.45;;
53253;SDS011;39148;53.332;6.922;2022-11-18T15:18:55;18.23;;;13.25;;
53253;SDS011;39148;53.332;6.922;2022-11-18T15:21:23;18.80;;;13.02;;
53253;SDS011;39148;53.332;6.922;2022-11-18T15:23:49;17.20;;;12.90;;
53253;SDS011;39148;53.332;6.922;2022-11-18T15:26:17;17.08;;;13.40;;
53253;SDS011;39148;53.332;6.922;2022-11-18T15:28:45;18.75;;;13.73;;
53253;SDS011;39148;53.332;6.922;2022-11-18T15:31:15;17.60;;;13.38;;
53253;SDS011;39148;53.332;6.922;2022-11-18T15:33:41;17.27;;;13.13;;
53253;SDS011;39148;53.332;6.922;2022-11-18T15:36:11;18.58;;;12.70;;
53253;SDS011;39148;53.332;6.922;2022-11-18T15:38:38;16.20;;;12.82;;
53253;SDS011;39148;53.332;6.922;2022-11-18T15:41:04;16.45;;;12.15;;
53253;SDS011;39148;53.332;6.922;2022-11-18T15:43:30;17.83;;;11.82;;
53253;SDS011;39148;53.332;6.922;2022-11-18T15:45:56;15.57;;;11.20;;
53253;SDS011;39148;53.332;6.922;2022-11-18T15:48:22;15.57;;;12.23;;
53253;SDS011;39148;53.332;6.922;2022-11-18T15:50:48;17.25;;;13.00;;
53253;SDS011;39148;53.332;6.922;2022-11-18T15:53:14;16.88;;;12.15;;
53253;SDS011;39148;53.332;6.922;2022-11-18T15:55:40;16.08;;;11.65;;
53253;SDS011;39148;53.332;6.922;2022-11-18T15:58:06;16.52;;;11.95;;
53253;SDS011;39148;53.332;6.922;2022-11-18T16:00:31;16.08;;;12.10;;
53253;SDS011;39148;53.332;6.922;2022-11-18T16:02:57;15.85;;;11.80;;
53253;SDS011;39148;53.332;6.922;2022-11-18T16:05:23;15.05;;;11.30;;
53253;SDS011;39148;53.332;6.922;2022-11-18T16:07:48;15.68;;;11.90;;
53253;SDS011;39148;53.332;6.922;2022-11-18T16:10:14;16.23;;;11.57;;
53253;SDS011;39148;53.332;6.922;2022-11-18T16:12:59;15.02;;;11.80;;
53253;SDS011;39148;53.332;6.922;2022-11-18T16:15:25;17.52;;;11.70;;
53253;SDS011;39148;53.332;6.922;2022-11-18T16:18:12;15.23;;;12.25;;
53253;SDS011;39148;53.332;6.922;2022-11-18T16:20:39;14.88;;;11.82;;
53253;SDS011;39148;53.332;6.922;2022-11-18T16:23:05;14.93;;;11.90;;
53253;SDS011;39148;53.332;6.922;2022-11-18T16:25:31;16.42;;;11.60;;
53253;SDS011;39148;53.332;6.922;2022-11-18T16:27:57;15.07;;;11.85;;
53253;SDS011;39148;53.332;6.922;2022-11-18T16:30:22;14.40;;;11.25;;
53253;SDS011;39148;53.332;6.922;2022-11-18T16:33:07;14.95;;;11.50;;
53253;SDS011;39148;53.332;6.922;2022-11-18T16:35:33;16.80;;;12.25;;
53253;SDS011;39148;53.332;6.922;2022-11-18T16:37:59;15.52;;;12.40;;
53253;SDS011;39148;53.332;6.922;2022-11-18T16:40:25;17.85;;;11.35;;
53253;SDS011;39148;53.332;6.922;2022-11-18T16:42:51;16.15;;;11.50;;
53253;SDS011;39148;53.332;6.922;2022-11-18T16:45:17;14.50;;;11.68;;
53253;SDS011;39148;53.332;6.922;2022-11-18T16:47:43;15.90;;;12.30;;
53253;SDS011;39148;53.332;6.922;2022-11-18T16:50:09;14.68;;;11.55;;
53253;SDS011;39148;53.332;6.922;2022-11-18T16:52:35;15.23;;;11.15;;
53253;SDS011;39148;53.332;6.922;2022-11-18T16:55:01;15.88;;;12.05;;
53253;SDS011;39148;53.332;6.922;2022-11-18T16:57:27;15.48;;;12.18;;
53253;SDS011;39148;53.332;6.922;2022-11-18T16:59:54;14.43;;;11.32;;
53253;SDS011;39148;53.332;6.922;2022-11-18T17:02:21;15.68;;;12.70;;
53253;SDS011;39148;53.332;6.922;2022-11-18T17:04:47;16.08;;;12.57;;
53253;SDS011;39148;53.332;6.922;2022-11-18T17:07:13;14.95;;;12.13;;
53253;SDS011;39148;53.332;6.922;2022-11-18T17:09:39;17.75;;;11.88;;
53253;SDS011;39148;53.332;6.922;2022-11-18T17:12:05;15.57;;;12.00;;